createdAt,value
2019-06-26T19:21:43.833Z,5.92
2019-06-26T19:24:47.711Z,6.80
2019-06-26T19:27:51.340Z,6.08
2019-06-26T19:30:55.079Z,5.70
2019-06-26T19:33:58.782Z,6.30
2019-06-26T19:37:02.479Z,6.15
2019-06-26T19:40:08.544Z,6.15
2019-06-26T19:43:13.302Z,6.10
2019-06-26T19:46:20.088Z,5.50
2019-06-26T19:49:23.734Z,5.70
2019-06-26T19:52:32.093Z,5.65
2019-06-26T19:55:35.909Z,5.70
2019-06-26T19:58:45.239Z,5.58
2019-06-26T20:01:54.688Z,5.80
2019-06-26T20:04:58.457Z,5.00
2019-06-26T20:08:02.149Z,5.30
2019-06-26T20:11:05.973Z,5.10
2019-06-26T20:14:09.660Z,4.90
2019-06-26T20:17:20.350Z,4.80
2019-06-26T20:20:24.042Z,4.80
2019-06-26T20:23:27.888Z,4.50
2019-06-26T20:26:31.639Z,4.70
2019-06-26T20:29:35.616Z,4.67
2019-06-26T20:32:39.344Z,4.70
2019-06-26T20:35:44.585Z,4.33
2019-06-26T20:38:48.277Z,4.25
2019-06-26T20:41:51.935Z,4.87
2019-06-26T20:44:55.607Z,4.80
2019-06-26T20:47:59.431Z,4.42
2019-06-26T20:51:55.678Z,4.45
2019-06-26T20:54:14.326Z,4.05
2019-06-26T20:57:19.616Z,3.95
2019-06-26T21:00:26.645Z,4.35
2019-06-26T21:03:30.311Z,4.22
2019-06-26T21:06:33.967Z,4.15
2019-06-26T21:09:37.631Z,4.30
2019-06-26T21:12:42.578Z,4.05
2019-06-26T21:15:53.184Z,4.50
2019-06-26T21:18:56.208Z,4.08
2019-06-26T21:22:03.075Z,4.53
2019-06-26T21:25:18.266Z,4.25
2019-06-26T21:28:13.372Z,4.20
2019-06-26T21:31:17.007Z,4.60
2019-06-26T21:34:25.218Z,4.30
2019-06-26T21:37:28.845Z,4.30
2019-06-26T21:40:32.688Z,4.67
2019-06-26T21:43:36.367Z,4.60
2019-06-26T21:46:40.037Z,4.90
2019-06-26T21:49:47.434Z,4.67
2019-06-26T21:52:54.911Z,4.47
2019-06-26T21:56:07.076Z,4.00
2019-06-26T21:59:11.092Z,4.58
2019-06-26T22:02:14.935Z,4.20
2019-06-26T22:05:20.220Z,5.10
2019-06-26T22:08:25.878Z,4.78
2019-06-26T22:11:32.925Z,4.42
2019-06-26T22:14:36.633Z,4.80
2019-06-26T22:17:40.260Z,5.25
2019-06-26T22:20:45.642Z,5.10
2019-06-26T22:23:49.401Z,5.10
2019-06-26T22:27:06.375Z,4.90
2019-06-26T22:30:08.120Z,5.00
2019-06-26T22:33:11.912Z,4.70
2019-06-26T22:36:16.751Z,5.10
2019-06-26T22:39:20.405Z,4.75
2019-06-26T22:42:24.106Z,4.65
2019-06-26T22:45:27.715Z,4.83
2019-06-26T22:48:31.560Z,4.80
2019-06-26T22:51:35.311Z,4.62
2019-06-26T22:54:39.045Z,4.60
2019-06-26T22:57:42.744Z,4.30
2019-06-26T23:00:47.867Z,5.20
2019-06-26T23:03:51.718Z,4.50
2019-06-26T23:06:55.351Z,4.75
2019-06-26T23:09:59.018Z,4.80
2019-06-26T23:13:02.845Z,4.53
2019-06-26T23:16:06.595Z,4.83
2019-06-26T23:19:10.235Z,4.35
2019-06-26T23:22:13.874Z,4.37
2019-06-26T23:25:17.538Z,4.70
2019-06-26T23:28:21.181Z,4.30
2019-06-26T23:31:28.100Z,4.35
2019-06-26T23:34:37.859Z,4.72
2019-06-26T23:37:41.523Z,5.08
2019-06-26T23:40:45.188Z,4.70
2019-06-26T23:43:48.914Z,4.87
2019-06-26T23:46:52.583Z,4.25
2019-06-26T23:49:56.307Z,4.87
2019-06-26T23:52:59.964Z,4.70
2019-06-26T23:56:03.606Z,4.50
2019-06-26T23:59:07.282Z,4.55
